Terminal Aerodrome Forecast
Issued by NWS

Home | Current Version | Previous Version | Text Only | Print | Product List | Glossary On
Versions: 1 2 3 4 5 6 7 8 9 10 11 12 13 14 15 16 17 18 19 20
000
FTUS46 KPDT 281200 AAA
TAFRDM
TAF AMD
KRDM 281249Z 2813/0112 35013KT P6SM SCT025 BKN035 OVC060
      TEMPO 2813/2814 3SM -SN BR BKN025 OVC030
     FM281500 35012KT P6SM BKN060 BKN080
     FM281800 36015KT P6SM SCT080
     FM010100 36006KT P6SM SKC
     FM011100 15004KT P6SM FEW200=

USA.gov is the U.S. government's official web portal to all federal, state and local government web resources and services.